createdAt,value
2018-08-18T00:00:29.882Z,99.99
2018-08-18T00:01:29.861Z,99.99
2018-08-18T00:02:29.846Z,99.99
2018-08-18T00:03:29.830Z,99.99
2018-08-18T00:04:29.815Z,99.99
2018-08-18T00:05:29.796Z,99.99
2018-08-18T00:06:29.783Z,99.99
2018-08-18T00:07:29.765Z,99.99
2018-08-18T00:08:29.745Z,99.99
2018-08-18T00:09:29.731Z,99.99
2018-08-18T00:10:29.723Z,99.99
2018-08-18T00:11:29.697Z,99.99
2018-08-18T00:12:29.681Z,99.99
2018-08-18T00:13:29.666Z,99.99
2018-08-18T00:14:29.646Z,99.99
2018-08-18T00:15:29.633Z,99.99
2018-08-18T00:16:29.622Z,99.99
2018-08-18T00:17:29.602Z,99.99
2018-08-18T00:18:29.580Z,99.99
2018-08-18T00:19:29.567Z,99.99
2018-08-18T00:20:29.549Z,99.99
2018-08-18T00:21:29.533Z,99.99
2018-08-18T00:22:29.512Z,99.99
2018-08-18T00:23:29.500Z,99.99
2018-08-18T00:24:29.482Z,99.99
2018-08-18T00:25:29.463Z,99.99
2018-08-18T00:26:29.448Z,99.99
2018-08-18T00:27:29.439Z,99.99
2018-08-18T00:28:29.415Z,99.99
2018-08-18T00:29:29.396Z,99.99
2018-08-18T00:30:29.382Z,99.99
2018-08-18T00:31:29.363Z,99.99
2018-08-18T00:32:29.348Z,99.99
2018-08-18T00:33:29.330Z,99.99
2018-08-18T00:34:29.313Z,99.99
2018-08-18T00:35:29.301Z,99.99
2018-08-18T00:36:29.278Z,99.99
2018-08-18T00:37:29.265Z,99.99
2018-08-18T00:38:29.252Z,99.99
2018-08-18T00:39:29.229Z,99.99
2018-08-18T00:40:29.211Z,99.99
2018-08-18T00:41:29.204Z,99.99
2018-08-18T00:42:29.190Z,99.99
2018-08-18T00:43:29.160Z,99.99
2018-08-18T00:44:29.145Z,99.99
2018-08-18T00:45:29.129Z,99.99
2018-08-18T00:46:29.114Z,99.99
2018-08-18T00:47:29.098Z,99.99
2018-08-18T00:48:29.087Z,99.99
2018-08-18T00:49:29.062Z,99.99
2018-08-18T00:50:29.050Z,99.99
2018-08-18T00:51:29.027Z,99.99
2018-08-18T00:52:29.012Z,99.99
2018-08-18T00:53:28.993Z,99.99
2018-08-18T00:54:28.976Z,99.99
2018-08-18T00:55:28.960Z,99.99
2018-08-18T00:56:28.953Z,99.99
2018-08-18T00:57:28.926Z,99.99
2018-08-18T00:58:28.909Z,99.99
2018-08-18T00:59:28.892Z,99.99
2018-08-18T01:00:28.879Z,99.99
2018-08-18T01:01:28.858Z,99.99
2018-08-18T01:02:28.841Z,99.99
2018-08-18T01:03:28.831Z,99.99
2018-08-18T01:04:28.808Z,99.99
2018-08-18T01:05:28.792Z,99.99
2018-08-18T01:06:28.774Z,99.99
2018-08-18T01:07:28.759Z,99.99
2018-08-18T01:08:28.741Z,99.99
2018-08-18T01:09:28.724Z,99.99
2018-08-18T01:10:28.705Z,99.99
2018-08-18T01:11:28.737Z,99.99
2018-08-18T01:12:28.821Z,99.99
2018-08-18T01:13:28.655Z,99.99
2018-08-18T01:14:28.771Z,99.99
2018-08-18T01:15:28.624Z,99.99
2018-08-18T01:16:28.607Z,99.99
2018-08-18T01:17:28.585Z,99.99
2018-08-18T01:18:28.569Z,99.99
2018-08-18T01:19:28.553Z,99.99
2018-08-18T01:20:28.540Z,99.99
2018-08-18T01:21:28.588Z,99.99
2018-08-18T01:22:28.506Z,99.99
2018-08-18T01:23:28.485Z,99.99
2018-08-18T01:24:28.469Z,99.99
2018-08-18T01:25:28.451Z,99.99
2018-08-18T01:26:28.434Z,99.99
2018-08-18T01:27:28.416Z,99.99
2018-08-18T01:28:28.408Z,99.99
2018-08-18T01:29:28.385Z,99.99
2018-08-18T01:30:28.367Z,99.99
2018-08-18T01:31:28.349Z,99.99
2018-08-18T01:32:28.332Z,99.99
2018-08-18T01:33:28.318Z,99.99
2018-08-18T01:34:28.309Z,99.99
2018-08-18T01:35:28.278Z,99.99
2018-08-18T01:36:28.267Z,99.99
2018-08-18T01:37:28.250Z,99.99
2018-08-18T01:38:28.230Z,99.99
2018-08-18T01:39:28.212Z,99.99
2018-08-18T01:40:28.195Z,99.99
2018-08-18T01:41:28.179Z,99.99
2018-08-18T01:42:28.160Z,99.99
2018-08-18T01:43:28.144Z,99.99
2018-08-18T01:44:28.131Z,99.99
2018-08-18T01:45:28.110Z,99.99
2018-08-18T01:46:28.091Z,99.99
2018-08-18T01:47:28.073Z,99.99
2018-08-18T01:48:28.059Z,99.99
2018-08-18T01:49:28.040Z,99.99
2018-08-18T01:50:28.024Z,99.99
2018-08-18T01:51:28.011Z,99.99
2018-08-18T01:52:27.990Z,99.99
2018-08-18T01:53:27.982Z,99.99
2018-08-18T01:54:27.957Z,99.99
2018-08-18T01:55:27.939Z,99.99
2018-08-18T01:56:27.922Z,99.99
2018-08-18T01:57:27.904Z,99.99
2018-08-18T01:58:27.889Z,99.99
2018-08-18T01:59:27.870Z,99.99
2018-08-18T02:00:27.854Z,99.99
2018-08-18T02:01:27.835Z,99.99
2018-08-18T02:02:27.817Z,99.99
2018-08-18T02:03:27.802Z,99.99
2018-08-18T02:04:27.788Z,99.99
2018-08-18T02:05:27.766Z,99.99
2018-08-18T02:06:27.749Z,99.99
2018-08-18T02:07:27.733Z,99.99
2018-08-18T02:08:27.715Z,99.99
2018-08-18T02:09:27.699Z,99.99
2018-08-18T02:10:27.682Z,99.99
2018-08-18T02:11:27.669Z,99.99
2018-08-18T02:12:27.646Z,99.99
2018-08-18T02:13:27.629Z,99.99
2018-08-18T02:14:27.613Z,99.99
2018-08-18T02:15:27.595Z,99.99
2018-08-18T02:16:27.578Z,99.99
2018-08-18T02:17:27.560Z,99.99
2018-08-18T02:18:27.552Z,99.99
2018-08-18T02:19:27.527Z,99.99
2018-08-18T02:20:27.512Z,99.99
2018-08-18T02:21:27.492Z,99.99
2018-08-18T02:22:27.479Z,99.99
2018-08-18T02:23:27.465Z,99.99
2018-08-18T02:24:27.444Z,99.99
2018-08-18T02:25:27.427Z,99.99
2018-08-18T02:26:27.405Z,99.99
2018-08-18T02:27:27.391Z,99.99
2018-08-18T02:28:27.373Z,99.99
2018-08-18T02:29:27.354Z,99.99
2018-08-18T02:30:27.338Z,99.99
2018-08-18T02:31:27.319Z,99.99
2018-08-18T02:32:27.304Z,99.99
2018-08-18T02:33:27.283Z,99.99
2018-08-18T02:34:27.270Z,99.99
2018-08-18T02:35:27.248Z,99.99
2018-08-18T02:36:27.231Z,99.99
2018-08-18T02:37:27.214Z,99.99
2018-08-18T02:38:27.197Z,99.99
2018-08-18T02:39:27.181Z,99.99
2018-08-18T02:40:27.170Z,99.99
2018-08-18T02:41:27.150Z,99.99
2018-08-18T02:42:27.136Z,99.99
2018-08-18T02:43:27.113Z,99.99
2018-08-18T02:44:27.094Z,99.99
2018-08-18T02:45:27.077Z,99.99
2018-08-18T02:46:27.058Z,99.99
2018-08-18T02:47:27.042Z,99.99
2018-08-18T02:48:27.029Z,99.99
2018-08-18T02:49:27.008Z,99.99
2018-08-18T02:50:26.990Z,99.99
2018-08-18T02:51:26.974Z,99.99
2018-08-18T02:52:26.955Z,99.99
2018-08-18T02:53:26.937Z,99.99
2018-08-18T02:54:26.925Z,99.99
2018-08-18T02:55:26.905Z,99.99
2018-08-18T02:56:26.885Z,99.99
2018-08-18T02:57:26.868Z,99.99
2018-08-18T02:58:26.850Z,99.99
2018-08-18T02:59:26.838Z,99.99
2018-08-18T03:00:26.819Z,99.99
2018-08-18T03:01:26.800Z,99.99
2018-08-18T03:02:26.783Z,99.99
2018-08-18T03:03:26.764Z,99.99
2018-08-18T03:04:26.757Z,99.99
2018-08-18T03:05:26.738Z,99.99
2018-08-18T03:06:26.715Z,99.99
2018-08-18T03:07:26.695Z,99.99
2018-08-18T03:08:26.680Z,99.99
2018-08-18T03:09:26.662Z,99.99
2018-08-18T03:10:26.651Z,99.99
2018-08-18T03:11:26.628Z,99.99
2018-08-18T03:12:26.609Z,99.99
2018-08-18T03:13:26.592Z,99.99
2018-08-18T03:14:26.577Z,99.99
2018-08-18T03:15:26.557Z,99.99
2018-08-18T03:16:26.539Z,99.99
2018-08-18T03:17:26.523Z,99.99
2018-08-18T03:18:26.506Z,99.99
2018-08-18T03:19:26.491Z,99.99
2018-08-18T03:20:26.475Z,99.99
2018-08-18T03:21:26.452Z,99.99
2018-08-18T03:22:26.436Z,99.99
2018-08-18T03:23:26.417Z,99.99
2018-08-18T03:24:26.401Z,99.99
2018-08-18T03:25:26.381Z,99.99
2018-08-18T03:26:26.365Z,99.99
2018-08-18T03:27:26.349Z,99.99
2018-08-18T03:28:26.333Z,99.99
2018-08-18T03:29:26.316Z,99.99
2018-08-18T03:30:26.293Z,99.99
2018-08-18T03:31:26.276Z,99.99
2018-08-18T03:32:26.260Z,99.99
2018-08-18T03:33:26.240Z,99.99
2018-08-18T03:34:26.224Z,99.99
2018-08-18T03:35:26.209Z,99.99
2018-08-18T03:36:26.199Z,99.99
2018-08-18T03:37:26.173Z,99.99
2018-08-18T03:38:26.156Z,99.99
2018-08-18T03:39:26.139Z,99.99
2018-08-18T03:40:26.121Z,99.99
2018-08-18T03:41:26.110Z,99.99
2018-08-18T03:42:26.084Z,99.99
2018-08-18T03:43:26.069Z,99.99
2018-08-18T03:44:26.051Z,99.99
2018-08-18T03:45:26.031Z,99.99
2018-08-18T03:46:26.015Z,99.99
2018-08-18T03:47:25.999Z,99.99
2018-08-18T03:48:25.980Z,99.99
2018-08-18T03:49:25.963Z,99.99
2018-08-18T03:50:25.944Z,99.99
2018-08-18T03:51:25.927Z,99.99
2018-08-18T03:52:25.938Z,99.99
2018-08-18T03:53:25.892Z,99.99
2018-08-18T03:54:25.873Z,99.99
2018-08-18T03:55:25.860Z,99.99
2018-08-18T03:56:25.841Z,99.99
2018-08-18T03:57:25.820Z,99.99
2018-08-18T03:58:25.803Z,99.99
2018-08-18T03:59:25.786Z,99.99
2018-08-18T04:00:25.767Z,99.99
2018-08-18T04:01:25.752Z,99.99
2018-08-18T04:02:25.743Z,99.99
2018-08-18T04:03:25.715Z,99.99
2018-08-18T04:04:25.698Z,99.99
2018-08-18T04:05:25.679Z,99.99
2018-08-18T04:06:25.663Z,99.99
2018-08-18T04:07:25.645Z,99.99
2018-08-18T04:08:25.628Z,99.99
2018-08-18T04:09:25.710Z,99.99
2018-08-18T04:10:25.596Z,99.99
2018-08-18T04:11:25.579Z,99.99
2018-08-18T04:12:25.557Z,99.99
2018-08-18T04:13:25.543Z,99.99
2018-08-18T04:14:25.566Z,99.99
2018-08-18T04:15:25.505Z,99.99
2018-08-18T04:16:25.485Z,99.99
2018-08-18T04:17:25.469Z,99.99
2018-08-18T04:18:25.456Z,99.99
2018-08-18T04:19:25.502Z,99.99
2018-08-18T04:20:25.419Z,99.99
2018-08-18T04:21:25.398Z,99.99
2018-08-18T04:22:25.381Z,99.99
2018-08-18T04:23:25.364Z,99.99
2018-08-18T04:24:25.348Z,99.99
2018-08-18T04:25:25.458Z,99.99
2018-08-18T04:26:25.315Z,99.99
2018-08-18T04:27:25.297Z,99.99
2018-08-18T04:28:25.276Z,99.99
2018-08-18T04:29:25.257Z,99.99
2018-08-18T04:30:25.244Z,99.99
2018-08-18T04:31:25.222Z,99.99
2018-08-18T04:32:25.206Z,99.99
2018-08-18T04:33:25.190Z,99.99
2018-08-18T04:34:25.190Z,99.99
2018-08-18T04:35:25.209Z,99.99
2018-08-18T04:36:25.133Z,99.99
2018-08-18T04:37:25.119Z,99.99
2018-08-18T04:38:25.096Z,99.99
2018-08-18T04:39:25.080Z,99.99
2018-08-18T04:40:25.064Z,99.99
2018-08-18T04:41:25.044Z,99.99
2018-08-18T04:42:25.031Z,99.99
2018-08-18T04:43:25.010Z,99.99
2018-08-18T04:44:25.012Z,99.99
2018-08-18T04:45:24.989Z,99.99
2018-08-18T04:46:24.957Z,99.99
2018-08-18T04:47:24.938Z,99.99
2018-08-18T04:48:24.919Z,99.99
2018-08-18T04:49:24.910Z,99.99
2018-08-18T04:50:24.909Z,99.99
2018-08-18T04:51:24.868Z,99.99
2018-08-18T04:52:24.853Z,99.99
2018-08-18T04:53:24.831Z,99.99
2018-08-18T04:54:24.818Z,99.99
2018-08-18T04:55:24.796Z,99.99
2018-08-18T04:56:24.779Z,99.99
2018-08-18T04:57:24.769Z,99.99
2018-08-18T04:58:24.745Z,99.99
2018-08-18T04:59:24.836Z,99.99
2018-08-18T05:00:24.709Z,99.99
2018-08-18T05:01:24.688Z,99.99
2018-08-18T05:02:24.675Z,99.99
2018-08-18T05:03:24.688Z,99.99
2018-08-18T05:04:24.638Z,99.99
2018-08-18T05:05:24.619Z,99.99
2018-08-18T05:06:24.602Z,99.99
2018-08-18T05:07:24.584Z,99.99
2018-08-18T05:08:24.569Z,99.99
2018-08-18T05:09:24.547Z,99.99
2018-08-18T05:10:24.532Z,99.99
2018-08-18T05:11:24.512Z,99.99
2018-08-18T05:12:24.499Z,99.99
2018-08-18T05:13:24.480Z,99.99
2018-08-18T05:14:24.460Z,99.99
2018-08-18T05:15:24.443Z,99.99
2018-08-18T05:16:24.424Z,99.99
2018-08-18T05:17:24.406Z,99.99
2018-08-18T05:18:24.392Z,99.99
2018-08-18T05:19:24.504Z,99.99
2018-08-18T05:20:24.357Z,99.99
2018-08-18T05:21:24.347Z,99.99
2018-08-18T05:22:24.319Z,99.99
2018-08-18T05:23:24.303Z,99.99
2018-08-18T05:24:24.292Z,99.99
2018-08-18T05:25:24.272Z,99.99
2018-08-18T05:26:24.248Z,99.99
2018-08-18T05:27:24.231Z,99.99
2018-08-18T05:28:24.213Z,99.99
2018-08-18T05:29:24.195Z,99.99
2018-08-18T05:30:24.177Z,99.99
2018-08-18T05:31:24.161Z,99.99
2018-08-18T05:32:24.147Z,99.99
2018-08-18T05:33:24.126Z,99.99
2018-08-18T05:34:24.108Z,99.99
2018-08-18T05:35:24.096Z,99.99
2018-08-18T05:36:24.115Z,99.99
2018-08-18T05:37:24.056Z,99.99
2018-08-18T05:38:24.037Z,99.99
2018-08-18T05:39:24.030Z,99.99
2018-08-18T05:40:24.005Z,99.99
2018-08-18T05:41:23.991Z,99.99
2018-08-18T05:42:23.967Z,99.99
2018-08-18T05:43:23.951Z,99.99
2018-08-18T05:44:23.931Z,99.99
2018-08-18T05:45:23.918Z,99.99
2018-08-18T05:46:23.900Z,99.99
2018-08-18T05:47:23.914Z,99.99
2018-08-18T05:48:23.861Z,99.99
2018-08-18T05:49:23.843Z,99.99
2018-08-18T05:50:23.826Z,99.99
2018-08-18T05:51:23.818Z,99.99
2018-08-18T05:52:23.792Z,99.99
2018-08-18T05:53:23.775Z,99.99
2018-08-18T05:54:23.755Z,99.99
2018-08-18T05:55:23.738Z,99.99
2018-08-18T05:56:23.722Z,99.99
2018-08-18T05:57:23.704Z,99.99
2018-08-18T05:58:23.689Z,99.99
2018-08-18T05:59:23.679Z,99.99
2018-08-18T06:00:23.653Z,99.99
2018-08-18T06:01:23.636Z,99.99
2018-08-18T06:02:23.618Z,99.99
2018-08-18T06:03:23.600Z,99.99
2018-08-18T06:04:23.584Z,99.99
2018-08-18T06:05:23.567Z,99.99
2018-08-18T06:06:23.548Z,99.99
2018-08-18T06:07:23.530Z,99.99
2018-08-18T06:08:23.515Z,99.99
2018-08-18T06:09:23.493Z,99.99
2018-08-18T06:10:23.478Z,99.99
2018-08-18T06:11:23.463Z,99.99
2018-08-18T06:12:23.444Z,99.99
2018-08-18T06:13:23.425Z,99.99
2018-08-18T06:14:23.407Z,99.99
2018-08-18T06:15:23.392Z,99.99
2018-08-18T06:16:23.374Z,99.99
2018-08-18T06:17:23.356Z,99.99
2018-08-18T06:18:23.339Z,99.99
2018-08-18T06:19:23.328Z,99.99
2018-08-18T06:20:23.307Z,99.99
2018-08-18T06:21:23.294Z,99.99
2018-08-18T06:22:23.269Z,99.99
2018-08-18T06:23:23.254Z,99.99
2018-08-18T06:24:23.282Z,99.99
2018-08-18T06:25:23.223Z,99.99
2018-08-18T06:26:23.202Z,99.99
2018-08-18T06:27:23.184Z,99.99
2018-08-18T06:28:23.169Z,99.99
2018-08-18T06:29:23.149Z,99.99
2018-08-18T06:30:23.135Z,99.99
2018-08-18T06:31:23.126Z,99.99
2018-08-18T06:32:23.099Z,99.99
2018-08-18T06:33:23.080Z,99.99
2018-08-18T06:34:23.079Z,99.99
2018-08-18T06:35:23.047Z,99.99
2018-08-18T06:36:23.033Z,99.99
2018-08-18T06:37:23.013Z,99.99
2018-08-18T06:38:22.995Z,99.99
2018-08-18T06:39:22.978Z,99.99
2018-08-18T06:40:22.961Z,99.99
2018-08-18T06:41:23.011Z,99.99
2018-08-18T06:42:22.928Z,99.99
2018-08-18T06:43:22.907Z,99.99
2018-08-18T06:44:22.892Z,99.99
2018-08-18T06:45:22.873Z,99.99
2018-08-18T06:46:22.854Z,99.99
2018-08-18T06:47:22.842Z,99.99
2018-08-18T06:48:22.825Z,99.99
2018-08-18T06:49:22.802Z,99.99
2018-08-18T06:50:22.786Z,99.99
2018-08-18T06:51:22.769Z,99.99
2018-08-18T06:52:22.766Z,99.99
2018-08-18T06:53:22.735Z,99.99
2018-08-18T06:54:22.837Z,99.99
2018-08-18T06:55:22.699Z,99.99
2018-08-18T06:56:22.686Z,99.99
2018-08-18T06:57:22.664Z,99.99
2018-08-18T06:58:22.648Z,99.99
2018-08-18T06:59:22.632Z,99.99
2018-08-18T07:00:22.614Z,99.99
2018-08-18T07:01:22.604Z,99.99
2018-08-18T07:02:22.579Z,99.99
2018-08-18T07:03:22.566Z,99.99
2018-08-18T07:04:22.548Z,99.99
2018-08-18T07:05:22.530Z,99.99
2018-08-18T07:06:22.512Z,99.99
2018-08-18T07:07:22.494Z,99.99
2018-08-18T07:08:22.478Z,99.99
2018-08-18T07:09:22.464Z,99.99
2018-08-18T07:10:22.447Z,99.99
2018-08-18T07:11:22.424Z,99.99
2018-08-18T07:12:22.408Z,99.99
2018-08-18T07:13:22.388Z,99.99
2018-08-18T07:14:22.373Z,99.99
2018-08-18T07:15:22.358Z,99.99
2018-08-18T07:16:22.338Z,99.99
2018-08-18T07:17:22.325Z,99.99
2018-08-18T07:18:22.313Z,99.99
2018-08-18T07:19:22.343Z,99.99
2018-08-18T07:20:22.272Z,99.99
2018-08-18T07:21:22.252Z,99.99
2018-08-18T07:22:22.243Z,99.99
2018-08-18T07:23:22.229Z,99.99
2018-08-18T07:24:22.202Z,99.99
2018-08-18T07:25:22.190Z,99.99
2018-08-18T07:26:22.170Z,99.99
2018-08-18T07:27:22.154Z,99.99
2018-08-18T07:28:22.171Z,99.99
2018-08-18T07:29:22.122Z,99.99
2018-08-18T07:30:22.101Z,99.99
2018-08-18T07:31:22.085Z,99.99
2018-08-18T07:32:22.080Z,99.99
2018-08-18T07:33:22.052Z,99.99
2018-08-18T07:34:22.032Z,99.54
2018-08-18T07:35:22.022Z,98.58
2018-08-18T07:36:22.001Z,98.96
2018-08-18T07:37:22.028Z,98.10
2018-08-18T07:38:21.966Z,99.15
2018-08-18T07:39:21.949Z,98.96
2018-08-18T07:40:21.934Z,98.00
2018-08-18T07:41:21.919Z,97.81
2018-08-18T07:42:21.915Z,97.86
2018-08-18T07:43:21.884Z,96.80
2018-08-18T07:44:21.871Z,95.36
2018-08-18T07:45:21.851Z,96.03
2018-08-18T07:46:21.885Z,92.96
2018-08-18T07:47:21.829Z,93.25
2018-08-18T07:48:21.805Z,91.33
2018-08-18T07:49:21.789Z,90.17
2018-08-18T07:50:21.770Z,89.69
2018-08-18T07:51:21.762Z,91.13
2018-08-18T07:52:21.747Z,91.66
2018-08-18T07:53:21.751Z,90.51
2018-08-18T07:54:21.711Z,89.16
2018-08-18T07:55:21.690Z,86.95
2018-08-18T07:56:21.675Z,87.62
2018-08-18T07:57:21.658Z,87.34
2018-08-18T07:58:21.640Z,88.39
2018-08-18T07:59:21.624Z,87.34
2018-08-18T08:00:21.610Z,86.80
2018-08-18T08:01:21.591Z,82.86
2018-08-18T08:02:21.579Z,83.92
2018-08-18T08:03:21.571Z,82.76
2018-08-18T08:04:21.544Z,82.09
2018-08-18T08:05:21.525Z,81.90
2018-08-18T08:06:21.510Z,80.17
2018-08-18T08:07:21.496Z,76.81
2018-08-18T08:08:21.494Z,77.67
2018-08-18T08:09:21.466Z,77.38
2018-08-18T08:10:21.448Z,75.37
2018-08-18T08:11:21.432Z,74.98
2018-08-18T08:12:21.435Z,75.75
2018-08-18T08:13:21.406Z,75.46
2018-08-18T08:14:21.396Z,75.37
2018-08-18T08:15:21.369Z,75.07
2018-08-18T08:16:21.358Z,75.21
2018-08-18T08:17:21.337Z,75.40
2018-08-18T08:18:21.422Z,75.21
2018-08-18T08:19:21.307Z,74.92
2018-08-18T08:20:21.291Z,74.82
2018-08-18T08:21:21.277Z,73.86
2018-08-18T08:22:21.266Z,73.86
2018-08-18T08:23:21.243Z,73.77
2018-08-18T08:24:21.234Z,73.51
2018-08-18T08:25:21.212Z,74.29
2018-08-18T08:26:21.198Z,73.90
2018-08-18T08:27:21.181Z,72.07
2018-08-18T08:28:21.166Z,72.13
2018-08-18T08:29:21.150Z,73.51
2018-08-18T08:30:21.134Z,73.13
2018-08-18T08:31:21.123Z,72.74
2018-08-18T08:32:21.113Z,73.61
2018-08-18T08:33:21.088Z,73.51
2018-08-18T08:34:21.075Z,73.42
2018-08-18T08:35:21.056Z,70.92
2018-08-18T08:36:21.042Z,70.66
2018-08-18T08:37:21.026Z,70.05
2018-08-18T08:38:21.014Z,71.30
2018-08-18T08:39:21.007Z,71.24
2018-08-18T08:40:20.981Z,71.14
2018-08-18T08:41:20.974Z,72.01
2018-08-18T08:42:20.959Z,70.95
2018-08-18T08:43:21.028Z,70.37
2018-08-18T08:44:20.925Z,67.49
2018-08-18T08:45:20.905Z,67.87
2018-08-18T08:46:20.888Z,69.89
2018-08-18T08:47:20.877Z,68.74
2018-08-18T08:48:20.861Z,68.35
2018-08-18T08:49:20.849Z,66.71
2018-08-18T08:50:20.832Z,66.04
2018-08-18T08:51:20.814Z,67.13
2018-08-18T08:52:20.808Z,65.78
2018-08-18T08:53:20.784Z,64.63
2018-08-18T08:54:20.776Z,66.36
2018-08-18T08:55:20.761Z,66.46
2018-08-18T08:56:20.748Z,64.25
2018-08-18T08:57:20.725Z,66.17
2018-08-18T08:58:20.709Z,65.88
2018-08-18T08:59:20.693Z,66.46
2018-08-18T09:00:20.679Z,65.59
2018-08-18T09:01:20.662Z,67.13
2018-08-18T09:02:20.651Z,65.88
2018-08-18T09:03:20.633Z,64.34
2018-08-18T09:04:20.618Z,65.30
2018-08-18T09:05:20.606Z,64.95
2018-08-18T09:06:20.588Z,63.98
2018-08-18T09:07:20.575Z,64.86
2018-08-18T09:08:20.559Z,66.49
2018-08-18T09:09:20.543Z,65.33
2018-08-18T09:10:20.636Z,65.24
2018-08-18T09:11:20.531Z,64.66
2018-08-18T09:12:20.500Z,64.66
2018-08-18T09:13:20.485Z,65.05
2018-08-18T09:14:20.470Z,66.59
2018-08-18T09:15:20.453Z,65.33
2018-08-18T09:16:20.445Z,65.33
2018-08-18T09:17:20.425Z,66.59
2018-08-18T09:18:20.413Z,67.36
2018-08-18T09:19:20.397Z,66.78
2018-08-18T09:20:20.383Z,66.01
2018-08-18T09:21:20.367Z,66.88
2018-08-18T09:22:20.351Z,66.78
2018-08-18T09:23:20.349Z,65.91
2018-08-18T09:24:20.325Z,65.72
2018-08-18T09:25:20.315Z,66.49
2018-08-18T09:26:20.318Z,67.55
2018-08-18T09:27:20.279Z,67.00
2018-08-18T09:28:20.273Z,66.04
2018-08-18T09:29:20.249Z,66.14
2018-08-18T09:30:20.253Z,63.44
2018-08-18T09:31:20.220Z,64.69
2018-08-18T09:32:20.207Z,64.50
2018-08-18T09:33:20.198Z,64.50
2018-08-18T09:34:20.190Z,63.92
2018-08-18T09:35:20.174Z,64.21
2018-08-18T09:36:20.235Z,64.69
2018-08-18T09:37:20.138Z,66.24
2018-08-18T09:38:20.128Z,65.47
2018-08-18T09:39:20.113Z,64.31
2018-08-18T09:40:20.095Z,64.11
2018-08-18T09:41:20.076Z,63.82
2018-08-18T09:42:20.065Z,65.95
2018-08-18T09:43:20.047Z,65.47
2018-08-18T09:44:20.034Z,65.08
2018-08-18T09:45:20.024Z,64.15
2018-08-18T09:46:20.030Z,63.28
2018-08-18T09:47:19.989Z,62.99
2018-08-18T09:48:19.975Z,63.76
2018-08-18T09:49:19.968Z,63.09
2018-08-18T09:50:19.954Z,61.74
2018-08-18T09:51:19.939Z,62.18
2018-08-18T09:52:19.952Z,61.83
2018-08-18T09:53:19.918Z,62.41
2018-08-18T09:54:19.889Z,62.22
2018-08-18T09:55:19.878Z,62.31
2018-08-18T09:56:19.866Z,62.51
2018-08-18T09:57:19.853Z,64.24
2018-08-18T09:58:19.837Z,64.15
2018-08-18T09:59:19.883Z,63.57
2018-08-18T10:00:19.803Z,62.92
2018-08-18T10:01:19.795Z,62.70
2018-08-18T10:02:19.782Z,61.64
2018-08-18T10:03:19.769Z,62.70
2018-08-18T10:04:19.746Z,63.09
2018-08-18T10:05:19.736Z,62.70
2018-08-18T10:06:19.776Z,62.70
2018-08-18T10:07:19.706Z,63.37
2018-08-18T10:08:19.690Z,62.70
2018-08-18T10:09:19.686Z,62.79
2018-08-18T10:10:19.669Z,63.18
2018-08-18T10:11:19.657Z,64.15
2018-08-18T10:12:19.635Z,63.57
2018-08-18T10:13:19.627Z,62.41
2018-08-18T10:14:19.606Z,61.83
2018-08-18T10:15:19.655Z,62.99
2018-08-18T10:16:19.576Z,62.02
2018-08-18T10:17:19.564Z,62.41
2018-08-18T10:18:19.549Z,63.76
2018-08-18T10:19:19.547Z,62.57
2018-08-18T10:20:19.520Z,62.18
2018-08-18T10:21:19.510Z,63.06
2018-08-18T10:22:19.499Z,63.79
2018-08-18T10:23:19.492Z,63.15
2018-08-18T10:24:19.469Z,62.96
2018-08-18T10:25:19.451Z,63.73
2018-08-18T10:26:19.433Z,63.54
2018-08-18T10:27:19.444Z,63.92
2018-08-18T10:28:19.413Z,63.24
2018-08-18T10:29:19.392Z,62.38
2018-08-18T10:30:19.390Z,62.66
2018-08-18T10:31:19.367Z,62.02
2018-08-18T10:32:19.348Z,61.64
2018-08-18T10:33:19.385Z,60.68
2018-08-18T10:34:19.321Z,60.13
2018-08-18T10:35:19.317Z,59.74
2018-08-18T10:36:19.292Z,59.55
2018-08-18T10:37:19.279Z,59.55
2018-08-18T10:38:19.268Z,59.35
2018-08-18T10:39:19.253Z,58.70
2018-08-18T10:40:19.246Z,59.28
2018-08-18T10:41:19.223Z,58.22
2018-08-18T10:42:19.208Z,59.38
2018-08-18T10:43:19.195Z,58.80
2018-08-18T10:44:19.179Z,58.58
2018-08-18T10:45:19.164Z,58.00
2018-08-18T10:46:19.149Z,58.77
2018-08-18T10:47:19.141Z,59.00
2018-08-18T10:48:19.121Z,60.25
2018-08-18T10:49:19.114Z,60.25
2018-08-18T10:50:19.096Z,60.28
2018-08-18T10:51:19.077Z,58.32
2018-08-18T10:52:19.064Z,56.87
2018-08-18T10:53:19.053Z,56.58
2018-08-18T10:54:19.043Z,54.07
2018-08-18T10:55:19.028Z,55.90
2018-08-18T10:56:19.013Z,55.90
2018-08-18T10:57:18.996Z,55.90
2018-08-18T10:58:18.981Z,56.10
2018-08-18T10:59:18.967Z,56.16
2018-08-18T11:00:18.952Z,56.77
2018-08-18T11:01:18.942Z,56.68
2018-08-18T11:02:18.931Z,56.77
2018-08-18T11:03:18.913Z,56.48
2018-08-18T11:04:18.901Z,57.06
2018-08-18T11:05:18.883Z,57.54
2018-08-18T11:06:18.872Z,56.00
2018-08-18T11:07:18.871Z,56.39
2018-08-18T11:08:18.857Z,56.20
2018-08-18T11:09:18.829Z,56.68
2018-08-18T11:10:18.817Z,57.26
2018-08-18T11:11:18.802Z,57.45
2018-08-18T11:12:18.793Z,57.16
2018-08-18T11:13:18.773Z,57.57
2018-08-18T11:14:18.762Z,58.25
2018-08-18T11:15:18.747Z,57.96
2018-08-18T11:16:18.740Z,56.54
2018-08-18T11:17:18.719Z,55.93
2018-08-18T11:18:18.706Z,55.55
2018-08-18T11:19:18.697Z,54.77
2018-08-18T11:20:18.686Z,56.22
2018-08-18T11:21:18.677Z,55.67
2018-08-18T11:22:18.649Z,56.15
2018-08-18T11:23:18.638Z,56.05
2018-08-18T11:24:18.624Z,54.61
2018-08-18T11:25:18.609Z,53.93
2018-08-18T11:26:18.598Z,54.03
2018-08-18T11:27:18.583Z,53.93
2018-08-18T11:28:18.600Z,53.45
2018-08-18T11:29:18.556Z,54.13
2018-08-18T11:30:18.544Z,54.51
2018-08-18T11:31:18.538Z,54.13
2018-08-18T11:32:18.537Z,53.64
2018-08-18T11:33:18.504Z,56.15
2018-08-18T11:34:18.492Z,56.05
2018-08-18T11:35:18.478Z,54.71
2018-08-18T11:36:18.462Z,54.90
2018-08-18T11:37:18.457Z,55.51
2018-08-18T11:38:18.436Z,54.63
2018-08-18T11:39:18.422Z,54.63
2018-08-18T11:40:18.409Z,54.93
2018-08-18T11:41:18.406Z,54.73
2018-08-18T11:42:18.385Z,54.73
2018-08-18T11:43:18.373Z,54.05
2018-08-18T11:44:18.362Z,53.86
2018-08-18T11:45:18.344Z,53.86
2018-08-18T11:46:18.352Z,54.73
2018-08-18T11:47:18.317Z,52.22
2018-08-18T11:48:18.310Z,52.22
2018-08-18T11:49:18.289Z,52.99
2018-08-18T11:50:18.276Z,53.50
2018-08-18T11:51:18.269Z,53.31
2018-08-18T11:52:18.251Z,52.14
2018-08-18T11:53:18.237Z,52.05
2018-08-18T11:54:18.225Z,51.08
2018-08-18T11:55:18.212Z,51.66
2018-08-18T11:56:18.199Z,50.98
2018-08-18T11:57:18.182Z,52.12
2018-08-18T11:58:18.175Z,52.12
2018-08-18T11:59:18.167Z,52.12
2018-08-18T12:00:18.148Z,52.73
2018-08-18T12:01:18.138Z,53.11
2018-08-18T12:02:18.119Z,53.11
2018-08-18T12:03:18.108Z,53.02
2018-08-18T12:04:18.095Z,52.63
2018-08-18T12:05:18.081Z,50.70
2018-08-18T12:06:18.071Z,51.64
2018-08-18T12:07:18.053Z,52.22
2018-08-18T12:08:18.040Z,51.51
2018-08-18T12:09:18.030Z,52.99
2018-08-18T12:10:18.013Z,52.02
2018-08-18T12:11:18.003Z,52.99
2018-08-18T12:12:17.990Z,52.02
2018-08-18T12:13:17.974Z,50.96
2018-08-18T12:14:17.965Z,51.93
2018-08-18T12:15:17.948Z,50.18
2018-08-18T12:16:17.934Z,50.28
2018-08-18T12:17:17.924Z,50.09
2018-08-18T12:18:17.908Z,50.09
2018-08-18T12:19:17.899Z,51.25
2018-08-18T12:20:17.933Z,52.05
2018-08-18T12:21:17.876Z,50.40
2018-08-18T12:22:17.857Z,51.08
2018-08-18T12:23:17.847Z,49.92
2018-08-18T12:24:17.840Z,49.63
2018-08-18T12:25:17.819Z,49.34
2018-08-18T12:26:17.805Z,50.79
2018-08-18T12:27:17.794Z,50.89
2018-08-18T12:28:17.791Z,50.31
2018-08-18T12:29:17.778Z,49.73
2018-08-18T12:30:17.752Z,50.31
2018-08-18T12:31:17.740Z,49.41
2018-08-18T12:32:17.730Z,51.06
2018-08-18T12:33:17.713Z,49.51
2018-08-18T12:34:17.702Z,49.41
2018-08-18T12:35:17.698Z,51.37
2018-08-18T12:36:17.761Z,50.98
2018-08-18T12:37:17.662Z,49.63
2018-08-18T12:38:17.648Z,49.82
2018-08-18T12:39:17.637Z,49.15
2018-08-18T12:40:17.633Z,48.95
2018-08-18T12:41:17.609Z,49.54
2018-08-18T12:42:17.597Z,50.98
2018-08-18T12:43:17.590Z,51.28
2018-08-18T12:44:17.571Z,50.02
2018-08-18T12:45:17.556Z,49.24
2018-08-18T12:46:17.543Z,48.86
2018-08-18T12:47:17.539Z,50.60
2018-08-18T12:48:17.517Z,49.82
2018-08-18T12:49:17.507Z,50.14
2018-08-18T12:50:17.563Z,49.37
2018-08-18T12:51:17.480Z,50.52
2018-08-18T12:52:17.466Z,49.58